AirNav   Everest Fuels
 
 774 users online  

MO19 American Legion-Village of Centertown Heliport
Centertown, Missouri, USA

GOING TO CENTERTOWN?


FAA INFORMATION EFFECTIVE 21 MAY 2020

Location

FAA Identifier: MO19
Lat/Long: 38-36-47.1100N 092-24-43.6700W
38-36.785167N 092-24.727833W
38.6130861,-92.4121306
(estimated)
Elevation: 805 ft. / 245 m (estimated)
Variation: 02E (2000)
Time zone: UTC -5 (UTC -6 during Standard Time)
Zip code: 65023

Heliport Operations

Heliport use: Private use. Permission required prior to landing
Activation date: 12/2000
Control tower: no
ARTCC: KANSAS CITY CENTER
FSS: COLUMBIA FLIGHT SERVICE STATION
Attendance: UNATNDD
Wind indicator: lighted
Segmented circle: no
Lights: ACTVT PERIMETER LGTS - 122.9.

Heliport Communications

WX ASOS at JEF (12 nm E): 133.625 (573-635-9266)
WX ASOS at COU (15 nm NE): 128.45 (573-499-1400)

Nearby radio navigation aids

VOR radial/distance  VOR name  Freq  Var
COUr217/14.9COLUMBIA VOR/DME110.2000E
HLVr198/32.8HALLSVILLE VORTAC114.2006E
SHYr015/35.5SUNSHINE VOR/DME108.4000E

Heliport Services

Runway Information

Helipad H1

Dimensions: 30 x 30 ft. / 9 x 9 m
Surface: concrete, in good condition
Runway edge lights: PERI
Traffic pattern: leftleft

Heliport Ownership and Management from official FAA records

Ownership: Privately-owned
Owner: AMERICAN LEGION/VILLAGE CENTERTOWN
531 STATE RT. U
CENTERTOWN, MO 65023
Phone 573-584-3844
Manager: ROBERT H. PRICE
52337 BIRD HAVEN RD
CENTERTOWN, MO 65023
Phone 573-584-3844

Additional Remarks

A52-H1 H1-25 FT TREE 190 FT SW & 39 FT TREES 260 FT SW OF HELIPAD.
FOR CD CTC MIZZOU APCH AT 417-868-5620/5619.

Instrument Procedures

There are no published instrument procedures at MO19.

Some nearby airports with instrument procedures:

KJEF - Jefferson City Memorial Airport (12 nm E)
KCOU - Columbia Regional Airport (15 nm NE)
H79 - Eldon Model Airpark (17 nm SW)
KFTT - Elton Hensley Memorial Airport (23 nm NE)
KVER - Jesse Viertel Memorial Airport (24 nm NW)
 
Loc | Ops | Rwys | IFR | FBO | Links
Com | Nav | Svcs | Stats | Notes
Area around MO19 (American Legion-Village of Centertown Heliport)
 
Road maps at: MapQuest Bing Google
 
Aerial photo
No photo
 
Sectional chart

 
Airport distance calculator
Flying to American Legion-Village of Centertown Heliport? Find the distance to fly.

From to MO19

Sunrise and sunset
Times for 04-Jun-2020
 Local
(UTC-5)
 Zulu
(UTC)
Morning civil twilight05:1510:15
Sunrise05:4710:47
Sunset20:3001:30
Evening civil twilight21:0102:01

Current date and time
Zulu (UTC)  05-Jun-2020 03:28:10
Local (UTC-5)  04-Jun-2020 22:28:10
 
METAR
KJEF 
12nm E 
050253Z AUTO 12004KT 10SM CLR 23/19 A2981 RMK AO2 SLP079 T02330189 53002
KCOU 
15nm NE 
050254Z AUTO 14005KT 10SM CLR 23/18 A2982 RMK AO2 SLP091 T02280178 53002
KVER 
24nm NW 
050315Z AUTO 14004KT 10SM CLR 24/23 A2981 RMK AO2 T02370231
TAF
KCOU 
15nm NE 
041727Z 0418/0518 VRB05KT P6SM SCT040 FM051400 24007KT P6SM VCSH SCT035
NOTAMs
Click for the latest NOTAMs
NOTAMs are issued by the DoD/FAA and will open in a separate window not controlled by AirNav.

 

 
 

Would you like to see your business listed on this page?

 If your business provides an interesting product or service to pilots, flight crews, aircraft, or users of the American Legion-Village of Centertown Heliport, you should consider listing it here.  To start the listing process, click on the button below
 
Add a business
 

Other Pages about American Legion-Village of Centertown Heliport

Update a link
 
Copyright © AirNav, LLC. All rights reserved. Privacy Policy  Contact